sensor_id;sensor_type;location;lat;lon;timestamp;temperature;humidity
67890;DHT22;54685;52.082;5.426;2022-09-09T00:02:09;15.90;99.90
67890;DHT22;54685;52.082;5.426;2022-09-09T00:04:41;16.00;99.90
67890;DHT22;54685;52.082;5.426;2022-09-09T00:07:19;15.90;99.90
67890;DHT22;54685;52.082;5.426;2022-09-09T00:15:20;15.90;99.90
67890;DHT22;54685;52.082;5.426;2022-09-09T00:20:33;15.90;99.90
67890;DHT22;54685;52.082;5.426;2022-09-09T00:23:16;16.00;99.90
67890;DHT22;54685;52.082;5.426;2022-09-09T00:25:51;16.00;99.90
67890;DHT22;54685;52.082;5.426;2022-09-09T00:28:23;16.00;99.90
67890;DHT22;54685;52.082;5.426;2022-09-09T00:30:51;15.90;99.90
67890;DHT22;54685;52.082;5.426;2022-09-09T00:33:23;16.00;99.90
67890;DHT22;54685;52.082;5.426;2022-09-09T00:35:54;16.00;99.90
67890;DHT22;54685;52.082;5.426;2022-09-09T00:38:38;16.00;99.90
67890;DHT22;54685;52.082;5.426;2022-09-09T00:41:20;16.00;99.90
67890;DHT22;54685;52.082;5.426;2022-09-09T00:44:03;16.00;99.90
67890;DHT22;54685;52.082;5.426;2022-09-09T00:55:03;15.80;99.90
67890;DHT22;54685;52.082;5.426;2022-09-09T00:57:36;15.80;99.90
67890;DHT22;54685;52.082;5.426;2022-09-09T01:00:28;15.80;99.90
67890;DHT22;54685;52.082;5.426;2022-09-09T01:17:09;15.60;99.90
67890;DHT22;54685;52.082;5.426;2022-09-09T01:28:02;15.50;99.90
67890;DHT22;54685;52.082;5.426;2022-09-09T01:30:33;15.50;99.90
67890;DHT22;54685;52.082;5.426;2022-09-09T01:33:00;15.40;99.90
67890;DHT22;54685;52.082;5.426;2022-09-09T01:35:44;15.40;99.90
67890;DHT22;54685;52.082;5.426;2022-09-09T01:38:13;15.40;99.90
67890;DHT22;54685;52.082;5.426;2022-09-09T01:40:41;15.40;99.90
67890;DHT22;54685;52.082;5.426;2022-09-09T01:43:08;15.40;99.90
67890;DHT22;54685;52.082;5.426;2022-09-09T01:45:37;15.40;99.90
67890;DHT22;54685;52.082;5.426;2022-09-09T01:48:05;15.40;99.90
67890;DHT22;54685;52.082;5.426;2022-09-09T01:50:58;15.40;99.90
67890;DHT22;54685;52.082;5.426;2022-09-09T01:53:26;15.30;99.90
67890;DHT22;54685;52.082;5.426;2022-09-09T01:56:12;15.30;99.90
67890;DHT22;54685;52.082;5.426;2022-09-09T02:04:29;15.20;99.90
67890;DHT22;54685;52.082;5.426;2022-09-09T02:07:02;15.20;99.90
67890;DHT22;54685;52.082;5.426;2022-09-09T02:09:30;15.20;99.90
67890;DHT22;54685;52.082;5.426;2022-09-09T02:12:05;15.20;99.90
67890;DHT22;54685;52.082;5.426;2022-09-09T02:14:45;15.10;99.90
67890;DHT22;54685;52.082;5.426;2022-09-09T02:17:18;15.10;99.90
67890;DHT22;54685;52.082;5.426;2022-09-09T02:20:07;15.00;99.90
67890;DHT22;54685;52.082;5.426;2022-09-09T02:22:44;15.00;99.90
67890;DHT22;54685;52.082;5.426;2022-09-09T02:25:17;15.00;99.90
67890;DHT22;54685;52.082;5.426;2022-09-09T02:27:47;14.90;99.90
67890;DHT22;54685;52.082;5.426;2022-09-09T02:30:16;14.80;99.90
67890;DHT22;54685;52.082;5.426;2022-09-09T02:32:51;14.80;99.90
67890;DHT22;54685;52.082;5.426;2022-09-09T02:35:31;14.80;99.90
67890;DHT22;54685;52.082;5.426;2022-09-09T02:38:01;14.80;99.90
67890;DHT22;54685;52.082;5.426;2022-09-09T02:40:30;14.80;99.90
67890;DHT22;54685;52.082;5.426;2022-09-09T02:43:00;14.90;99.90
67890;DHT22;54685;52.082;5.426;2022-09-09T02:46:18;14.90;99.90
67890;DHT22;54685;52.082;5.426;2022-09-09T02:48:31;14.90;99.90
67890;DHT22;54685;52.082;5.426;2022-09-09T02:51:35;14.90;99.90
67890;DHT22;54685;52.082;5.426;2022-09-09T02:54:15;14.80;99.90
67890;DHT22;54685;52.082;5.426;2022-09-09T02:56:49;14.80;99.90
67890;DHT22;54685;52.082;5.426;2022-09-09T02:59:20;14.80;99.90
67890;DHT22;54685;52.082;5.426;2022-09-09T03:01:47;14.80;99.90
67890;DHT22;54685;52.082;5.426;2022-09-09T03:04:14;14.80;99.90
67890;DHT22;54685;52.082;5.426;2022-09-09T03:06:41;14.70;99.90
67890;DHT22;54685;52.082;5.426;2022-09-09T03:09:16;14.70;99.90
67890;DHT22;54685;52.082;5.426;2022-09-09T03:11:44;14.70;99.90
67890;DHT22;54685;52.082;5.426;2022-09-09T03:14:12;14.60;99.90
67890;DHT22;54685;52.082;5.426;2022-09-09T03:16:40;14.70;99.90
67890;DHT22;54685;52.082;5.426;2022-09-09T03:19:06;14.70;99.90
67890;DHT22;54685;52.082;5.426;2022-09-09T03:21:33;14.70;99.90
67890;DHT22;54685;52.082;5.426;2022-09-09T03:24:00;14.80;99.90
67890;DHT22;54685;52.082;5.426;2022-09-09T03:26:30;14.80;99.90
67890;DHT22;54685;52.082;5.426;2022-09-09T03:28:57;14.70;99.90
67890;DHT22;54685;52.082;5.426;2022-09-09T03:31:24;14.60;99.90
67890;DHT22;54685;52.082;5.426;2022-09-09T03:33:51;14.60;99.90
67890;DHT22;54685;52.082;5.426;2022-09-09T03:36:20;14.60;99.90
67890;DHT22;54685;52.082;5.426;2022-09-09T03:38:46;14.60;99.90
67890;DHT22;54685;52.082;5.426;2022-09-09T03:41:13;14.50;99.90
67890;DHT22;54685;52.082;5.426;2022-09-09T03:43:41;14.60;99.90
67890;DHT22;54685;52.082;5.426;2022-09-09T03:46:08;14.60;99.90
67890;DHT22;54685;52.082;5.426;2022-09-09T03:48:35;14.60;99.90
67890;DHT22;54685;52.082;5.426;2022-09-09T03:51:03;14.60;99.90
67890;DHT22;54685;52.082;5.426;2022-09-09T03:53:31;14.60;99.90
67890;DHT22;54685;52.082;5.426;2022-09-09T03:55:58;14.60;99.90
67890;DHT22;54685;52.082;5.426;2022-09-09T03:58:28;14.60;99.90
67890;DHT22;54685;52.082;5.426;2022-09-09T04:01:04;14.50;99.90
67890;DHT22;54685;52.082;5.426;2022-09-09T04:03:31;14.50;99.90
67890;DHT22;54685;52.082;5.426;2022-09-09T04:06:00;14.60;99.90
67890;DHT22;54685;52.082;5.426;2022-09-09T04:08:30;14.50;99.90
67890;DHT22;54685;52.082;5.426;2022-09-09T04:11:00;14.60;99.90
67890;DHT22;54685;52.082;5.426;2022-09-09T04:13:33;14.80;99.90
67890;DHT22;54685;52.082;5.426;2022-09-09T04:16:02;14.80;99.90
67890;DHT22;54685;52.082;5.426;2022-09-09T04:18:33;14.80;99.90
67890;DHT22;54685;52.082;5.426;2022-09-09T04:21:02;14.80;99.90
67890;DHT22;54685;52.082;5.426;2022-09-09T04:23:31;14.80;99.90
67890;DHT22;54685;52.082;5.426;2022-09-09T04:25:59;14.70;99.90
67890;DHT22;54685;52.082;5.426;2022-09-09T04:28:32;14.80;99.90
67890;DHT22;54685;52.082;5.426;2022-09-09T04:31:07;14.70;99.90
67890;DHT22;54685;52.082;5.426;2022-09-09T04:33:35;14.80;99.90
67890;DHT22;54685;52.082;5.426;2022-09-09T04:36:07;14.70;99.90
67890;DHT22;54685;52.082;5.426;2022-09-09T04:38:34;14.80;99.90
67890;DHT22;54685;52.082;5.426;2022-09-09T04:41:02;14.80;99.90
67890;DHT22;54685;52.082;5.426;2022-09-09T04:43:30;14.80;99.90
67890;DHT22;54685;52.082;5.426;2022-09-09T04:45:58;14.80;99.90
67890;DHT22;54685;52.082;5.426;2022-09-09T04:48:26;14.80;99.90
67890;DHT22;54685;52.082;5.426;2022-09-09T04:50:56;14.90;99.90
67890;DHT22;54685;52.082;5.426;2022-09-09T04:53:23;14.90;99.90
67890;DHT22;54685;52.082;5.426;2022-09-09T04:56:00;14.70;99.90
67890;DHT22;54685;52.082;5.426;2022-09-09T04:58:28;14.70;99.90
67890;DHT22;54685;52.082;5.426;2022-09-09T05:01:05;14.70;99.90
67890;DHT22;54685;52.082;5.426;2022-09-09T05:03:32;14.60;99.90
67890;DHT22;54685;52.082;5.426;2022-09-09T05:06:08;14.70;99.90
67890;DHT22;54685;52.082;5.426;2022-09-09T05:08:38;14.70;99.90
67890;DHT22;54685;52.082;5.426;2022-09-09T05:11:24;14.70;99.90
67890;DHT22;54685;52.082;5.426;2022-09-09T05:13:57;14.80;99.90
67890;DHT22;54685;52.082;5.426;2022-09-09T05:16:24;14.80;99.90
67890;DHT22;54685;52.082;5.426;2022-09-09T05:18:51;14.60;99.90
67890;DHT22;54685;52.082;5.426;2022-09-09T05:21:20;14.60;99.90
67890;DHT22;54685;52.082;5.426;2022-09-09T05:23:48;14.60;99.90
67890;DHT22;54685;52.082;5.426;2022-09-09T05:26:17;14.60;99.90
67890;DHT22;54685;52.082;5.426;2022-09-09T05:28:47;14.60;99.90
67890;DHT22;54685;52.082;5.426;2022-09-09T05:31:16;14.60;99.90
67890;DHT22;54685;52.082;5.426;2022-09-09T05:33:45;14.60;99.90
67890;DHT22;54685;52.082;5.426;2022-09-09T05:36:15;14.60;99.90
67890;DHT22;54685;52.082;5.426;2022-09-09T05:38:44;14.60;99.90
67890;DHT22;54685;52.082;5.426;2022-09-09T05:41:13;14.60;99.90
67890;DHT22;54685;52.082;5.426;2022-09-09T05:43:45;14.70;99.90
67890;DHT22;54685;52.082;5.426;2022-09-09T05:46:16;14.70;99.90
67890;DHT22;54685;52.082;5.426;2022-09-09T05:48:47;14.80;99.90
67890;DHT22;54685;52.082;5.426;2022-09-09T05:51:17;14.80;99.90
67890;DHT22;54685;52.082;5.426;2022-09-09T05:53:45;14.80;99.90
67890;DHT22;54685;52.082;5.426;2022-09-09T05:56:17;14.80;99.90
67890;DHT22;54685;52.082;5.426;2022-09-09T05:58:44;14.80;99.90
67890;DHT22;54685;52.082;5.426;2022-09-09T06:03:49;14.80;99.90
67890;DHT22;54685;52.082;5.426;2022-09-09T06:06:21;14.90;99.90
67890;DHT22;54685;52.082;5.426;2022-09-09T06:08:53;14.90;99.90
67890;DHT22;54685;52.082;5.426;2022-09-09T06:11:21;15.20;99.90
67890;DHT22;54685;52.082;5.426;2022-09-09T06:13:49;15.20;99.90
67890;DHT22;54685;52.082;5.426;2022-09-09T06:16:19;15.30;99.90
67890;DHT22;54685;52.082;5.426;2022-09-09T06:18:46;15.30;99.90
67890;DHT22;54685;52.082;5.426;2022-09-09T06:21:17;15.40;99.90
67890;DHT22;54685;52.082;5.426;2022-09-09T06:23:46;15.50;99.90
67890;DHT22;54685;52.082;5.426;2022-09-09T06:26:19;15.60;99.90
67890;DHT22;54685;52.082;5.426;2022-09-09T06:28:48;15.60;99.90
67890;DHT22;54685;52.082;5.426;2022-09-09T06:31:17;15.70;99.90
67890;DHT22;54685;52.082;5.426;2022-09-09T06:33:54;15.70;99.90
67890;DHT22;54685;52.082;5.426;2022-09-09T06:36:25;15.70;99.90
67890;DHT22;54685;52.082;5.426;2022-09-09T06:38:52;15.80;99.90
67890;DHT22;54685;52.082;5.426;2022-09-09T06:41:25;15.90;99.90
67890;DHT22;54685;52.082;5.426;2022-09-09T06:43:53;16.00;99.90
67890;DHT22;54685;52.082;5.426;2022-09-09T06:46:30;16.00;99.90
67890;DHT22;54685;52.082;5.426;2022-09-09T06:49:00;16.10;99.90
67890;DHT22;54685;52.082;5.426;2022-09-09T06:51:32;16.20;99.90
67890;DHT22;54685;52.082;5.426;2022-09-09T06:54:03;16.20;99.90
67890;DHT22;54685;52.082;5.426;2022-09-09T06:56:33;16.30;99.90
67890;DHT22;54685;52.082;5.426;2022-09-09T06:59:04;16.40;99.90
67890;DHT22;54685;52.082;5.426;2022-09-09T07:01:37;16.40;99.90
67890;DHT22;54685;52.082;5.426;2022-09-09T07:04:08;16.40;99.90
67890;DHT22;54685;52.082;5.426;2022-09-09T07:06:44;16.40;99.90
67890;DHT22;54685;52.082;5.426;2022-09-09T07:09:15;16.40;99.90
67890;DHT22;54685;52.082;5.426;2022-09-09T07:11:47;16.40;99.90
67890;DHT22;54685;52.082;5.426;2022-09-09T07:14:15;16.40;99.90
67890;DHT22;54685;52.082;5.426;2022-09-09T07:16:46;16.50;99.90
67890;DHT22;54685;52.082;5.426;2022-09-09T07:19:16;16.60;99.90
67890;DHT22;54685;52.082;5.426;2022-09-09T07:21:46;16.70;99.90
67890;DHT22;54685;52.082;5.426;2022-09-09T07:24:16;16.70;99.90
67890;DHT22;54685;52.082;5.426;2022-09-09T07:26:43;16.70;99.90
67890;DHT22;54685;52.082;5.426;2022-09-09T07:29:11;16.70;99.90
67890;DHT22;54685;52.082;5.426;2022-09-09T07:31:46;16.70;99.90
67890;DHT22;54685;52.082;5.426;2022-09-09T07:34:17;16.70;99.90
67890;DHT22;54685;52.082;5.426;2022-09-09T07:36:46;16.80;99.90
67890;DHT22;54685;52.082;5.426;2022-09-09T07:39:16;16.80;99.90
67890;DHT22;54685;52.082;5.426;2022-09-09T07:41:48;16.90;99.90
67890;DHT22;54685;52.082;5.426;2022-09-09T07:44:20;16.90;99.90
67890;DHT22;54685;52.082;5.426;2022-09-09T07:46:51;17.00;99.90
67890;DHT22;54685;52.082;5.426;2022-09-09T07:49:22;17.00;99.90
67890;DHT22;54685;52.082;5.426;2022-09-09T07:51:58;17.10;99.90
67890;DHT22;54685;52.082;5.426;2022-09-09T07:54:25;17.20;99.90
67890;DHT22;54685;52.082;5.426;2022-09-09T07:56:52;17.20;99.90
67890;DHT22;54685;52.082;5.426;2022-09-09T07:59:22;17.30;99.90
67890;DHT22;54685;52.082;5.426;2022-09-09T08:01:53;17.30;99.90
67890;DHT22;54685;52.082;5.426;2022-09-09T08:04:26;17.30;99.90
67890;DHT22;54685;52.082;5.426;2022-09-09T08:07:00;17.20;99.90
67890;DHT22;54685;52.082;5.426;2022-09-09T08:09:29;17.20;99.90
67890;DHT22;54685;52.082;5.426;2022-09-09T08:12:06;17.20;99.90
67890;DHT22;54685;52.082;5.426;2022-09-09T08:14:33;17.10;99.90
67890;DHT22;54685;52.082;5.426;2022-09-09T08:17:00;17.20;99.90
67890;DHT22;54685;52.082;5.426;2022-09-09T08:19:28;17.30;99.90
67890;DHT22;54685;52.082;5.426;2022-09-09T08:21:58;17.20;99.90
67890;DHT22;54685;52.082;5.426;2022-09-09T08:24:25;17.10;99.90
67890;DHT22;54685;52.082;5.426;2022-09-09T08:26:52;17.10;99.90
67890;DHT22;54685;52.082;5.426;2022-09-09T08:29:23;17.20;99.90
67890;DHT22;54685;52.082;5.426;2022-09-09T08:31:53;17.10;99.90
67890;DHT22;54685;52.082;5.426;2022-09-09T08:34:25;17.10;99.90
67890;DHT22;54685;52.082;5.426;2022-09-09T08:36:54;17.20;99.90
67890;DHT22;54685;52.082;5.426;2022-09-09T08:39:27;17.20;99.90
67890;DHT22;54685;52.082;5.426;2022-09-09T08:42:28;17.10;99.90
67890;DHT22;54685;52.082;5.426;2022-09-09T08:50:35;17.30;99.90
67890;DHT22;54685;52.082;5.426;2022-09-09T08:53:29;17.30;99.90
67890;DHT22;54685;52.082;5.426;2022-09-09T08:56:09;17.20;99.90
67890;DHT22;54685;52.082;5.426;2022-09-09T08:58:52;17.20;99.90
67890;DHT22;54685;52.082;5.426;2022-09-09T09:07:17;17.40;99.90
67890;DHT22;54685;52.082;5.426;2022-09-09T09:09:59;17.40;99.90
67890;DHT22;54685;52.082;5.426;2022-09-09T09:12:51;17.50;99.90
67890;DHT22;54685;52.082;5.426;2022-09-09T09:15:26;17.40;99.90
67890;DHT22;54685;52.082;5.426;2022-09-09T09:17:58;17.30;99.90
67890;DHT22;54685;52.082;5.426;2022-09-09T09:23:18;17.40;99.90
67890;DHT22;54685;52.082;5.426;2022-09-09T09:25:46;17.40;99.90
67890;DHT22;54685;52.082;5.426;2022-09-09T09:28:17;17.30;99.90
67890;DHT22;54685;52.082;5.426;2022-09-09T09:30:57;17.30;99.90
67890;DHT22;54685;52.082;5.426;2022-09-09T09:33:56;17.30;99.90
67890;DHT22;54685;52.082;5.426;2022-09-09T09:36:39;17.40;99.90
67890;DHT22;54685;52.082;5.426;2022-09-09T09:39:06;17.40;99.90
67890;DHT22;54685;52.082;5.426;2022-09-09T09:41:56;17.50;99.90
67890;DHT22;54685;52.082;5.426;2022-09-09T09:44:31;17.50;99.90
67890;DHT22;54685;52.082;5.426;2022-09-09T09:47:15;17.50;99.90
67890;DHT22;54685;52.082;5.426;2022-09-09T09:49:57;17.60;99.90
67890;DHT22;54685;52.082;5.426;2022-09-09T09:52:33;17.50;99.90
67890;DHT22;54685;52.082;5.426;2022-09-09T09:55:04;17.50;99.90
67890;DHT22;54685;52.082;5.426;2022-09-09T09:57:39;17.60;99.90
67890;DHT22;54685;52.082;5.426;2022-09-09T10:00:18;17.60;99.90
67890;DHT22;54685;52.082;5.426;2022-09-09T10:02:52;17.70;99.90
67890;DHT22;54685;52.082;5.426;2022-09-09T10:05:28;17.70;99.90
67890;DHT22;54685;52.082;5.426;2022-09-09T10:08:12;17.70;99.90
67890;DHT22;54685;52.082;5.426;2022-09-09T10:10:42;17.80;99.90
67890;DHT22;54685;52.082;5.426;2022-09-09T10:13:35;17.70;99.90
67890;DHT22;54685;52.082;5.426;2022-09-09T10:19:09;17.70;99.90
67890;DHT22;54685;52.082;5.426;2022-09-09T10:30:23;17.70;99.90
67890;DHT22;54685;52.082;5.426;2022-09-09T10:33:08;17.60;99.90
67890;DHT22;54685;52.082;5.426;2022-09-09T10:35:51;17.70;99.90
67890;DHT22;54685;52.082;5.426;2022-09-09T10:38:41;17.60;99.90
67890;DHT22;54685;52.082;5.426;2022-09-09T10:55:24;17.40;99.90
67890;DHT22;54685;52.082;5.426;2022-09-09T10:57:58;17.40;99.90
67890;DHT22;54685;52.082;5.426;2022-09-09T11:03:04;17.90;99.90
67890;DHT22;54685;52.082;5.426;2022-09-09T11:05:39;18.10;99.90
67890;DHT22;54685;52.082;5.426;2022-09-09T11:08:17;18.30;99.90
67890;DHT22;54685;52.082;5.426;2022-09-09T11:10:51;18.50;99.90
67890;DHT22;54685;52.082;5.426;2022-09-09T11:16:04;18.80;99.90
67890;DHT22;54685;52.082;5.426;2022-09-09T11:18:37;19.10;99.90
67890;DHT22;54685;52.082;5.426;2022-09-09T11:21:12;19.20;99.90
67890;DHT22;54685;52.082;5.426;2022-09-09T11:23:45;19.20;99.90
67890;DHT22;54685;52.082;5.426;2022-09-09T11:26:27;19.00;99.90
67890;DHT22;54685;52.082;5.426;2022-09-09T11:40:38;18.90;99.90
67890;DHT22;54685;52.082;5.426;2022-09-09T11:43:32;18.90;99.90
67890;DHT22;54685;52.082;5.426;2022-09-09T11:46:02;18.90;99.90
67890;DHT22;54685;52.082;5.426;2022-09-09T11:48:38;18.80;99.90
67890;DHT22;54685;52.082;5.426;2022-09-09T11:51:10;18.70;99.90
67890;DHT22;54685;52.082;5.426;2022-09-09T11:53:54;18.60;99.90
67890;DHT22;54685;52.082;5.426;2022-09-09T11:59:05;18.40;99.90
67890;DHT22;54685;52.082;5.426;2022-09-09T12:06:51;18.30;99.90
67890;DHT22;54685;52.082;5.426;2022-09-09T12:17:47;18.10;99.90
67890;DHT22;54685;52.082;5.426;2022-09-09T12:20:36;18.00;99.90
67890;DHT22;54685;52.082;5.426;2022-09-09T12:26:21;17.70;99.90
67890;DHT22;54685;52.082;5.426;2022-09-09T12:29:06;17.70;99.90
67890;DHT22;54685;52.082;5.426;2022-09-09T12:31:56;17.70;99.90
67890;DHT22;54685;52.082;5.426;2022-09-09T12:37:58;17.80;99.90
67890;DHT22;54685;52.082;5.426;2022-09-09T12:40:26;18.00;99.90
67890;DHT22;54685;52.082;5.426;2022-09-09T12:42:54;18.10;99.90
67890;DHT22;54685;52.082;5.426;2022-09-09T12:45:25;18.20;99.90
67890;DHT22;54685;52.082;5.426;2022-09-09T12:48:00;18.20;99.90
67890;DHT22;54685;52.082;5.426;2022-09-09T12:50:45;18.20;99.90
67890;DHT22;54685;52.082;5.426;2022-09-09T12:55:58;18.30;99.90
67890;DHT22;54685;52.082;5.426;2022-09-09T12:58:26;18.20;99.90
67890;DHT22;54685;52.082;5.426;2022-09-09T13:00:56;18.20;99.90
67890;DHT22;54685;52.082;5.426;2022-09-09T13:03:23;18.20;99.90
67890;DHT22;54685;52.082;5.426;2022-09-09T13:05:52;18.20;99.90
67890;DHT22;54685;52.082;5.426;2022-09-09T13:08:20;18.30;99.90
67890;DHT22;54685;52.082;5.426;2022-09-09T13:10:57;18.40;99.90
67890;DHT22;54685;52.082;5.426;2022-09-09T13:13:37;18.40;99.90
67890;DHT22;54685;52.082;5.426;2022-09-09T13:16:06;18.30;99.90
67890;DHT22;54685;52.082;5.426;2022-09-09T13:18:36;18.30;99.90
67890;DHT22;54685;52.082;5.426;2022-09-09T13:21:05;18.20;99.90
67890;DHT22;54685;52.082;5.426;2022-09-09T13:23:34;18.20;99.90
67890;DHT22;54685;52.082;5.426;2022-09-09T13:26:18;18.10;99.90
67890;DHT22;54685;52.082;5.426;2022-09-09T13:28:51;18.10;99.90
67890;DHT22;54685;52.082;5.426;2022-09-09T13:31:27;18.00;99.90
67890;DHT22;54685;52.082;5.426;2022-09-09T13:33:54;18.00;99.90
67890;DHT22;54685;52.082;5.426;2022-09-09T13:36:33;18.10;99.90
67890;DHT22;54685;52.082;5.426;2022-09-09T13:39:03;18.10;99.90
67890;DHT22;54685;52.082;5.426;2022-09-09T13:41:33;18.10;99.90
67890;DHT22;54685;52.082;5.426;2022-09-09T13:44:02;18.20;99.90
67890;DHT22;54685;52.082;5.426;2022-09-09T13:46:35;18.20;99.90
67890;DHT22;54685;52.082;5.426;2022-09-09T13:49:20;18.20;99.90
67890;DHT22;54685;52.082;5.426;2022-09-09T13:52:02;18.20;99.90
67890;DHT22;54685;52.082;5.426;2022-09-09T13:54:28;18.20;99.90
67890;DHT22;54685;52.082;5.426;2022-09-09T13:56:57;18.30;99.90
67890;DHT22;54685;52.082;5.426;2022-09-09T13:59:23;18.40;99.90
67890;DHT22;54685;52.082;5.426;2022-09-09T14:02:08;18.40;99.90
67890;DHT22;54685;52.082;5.426;2022-09-09T14:04:34;18.30;99.90
67890;DHT22;54685;52.082;5.426;2022-09-09T14:07:02;18.40;99.90
67890;DHT22;54685;52.082;5.426;2022-09-09T14:09:29;18.40;99.90
67890;DHT22;54685;52.082;5.426;2022-09-09T14:11:56;18.50;99.90
67890;DHT22;54685;52.082;5.426;2022-09-09T14:14:23;18.60;99.90
67890;DHT22;54685;52.082;5.426;2022-09-09T14:16:50;18.60;99.90
67890;DHT22;54685;52.082;5.426;2022-09-09T14:19:16;18.70;99.90
67890;DHT22;54685;52.082;5.426;2022-09-09T14:21:45;18.60;99.90
67890;DHT22;54685;52.082;5.426;2022-09-09T14:24:12;18.60;99.90
67890;DHT22;54685;52.082;5.426;2022-09-09T14:26:39;18.70;99.90
67890;DHT22;54685;52.082;5.426;2022-09-09T14:29:07;18.60;99.90
67890;DHT22;54685;52.082;5.426;2022-09-09T14:31:33;18.60;99.90
67890;DHT22;54685;52.082;5.426;2022-09-09T14:34:01;18.70;99.90
67890;DHT22;54685;52.082;5.426;2022-09-09T14:36:33;18.70;99.90
67890;DHT22;54685;52.082;5.426;2022-09-09T14:39:01;18.70;99.90
67890;DHT22;54685;52.082;5.426;2022-09-09T14:41:28;18.70;99.90
67890;DHT22;54685;52.082;5.426;2022-09-09T14:43:56;18.60;99.90
67890;DHT22;54685;52.082;5.426;2022-09-09T14:46:23;18.60;99.90
67890;DHT22;54685;52.082;5.426;2022-09-09T14:48:50;18.70;99.90
67890;DHT22;54685;52.082;5.426;2022-09-09T14:51:18;18.70;99.90
67890;DHT22;54685;52.082;5.426;2022-09-09T14:53:51;18.60;99.90
67890;DHT22;54685;52.082;5.426;2022-09-09T14:56:24;18.60;99.90
67890;DHT22;54685;52.082;5.426;2022-09-09T14:58:53;18.60;99.90
67890;DHT22;54685;52.082;5.426;2022-09-09T15:01:21;18.40;99.90
67890;DHT22;54685;52.082;5.426;2022-09-09T15:03:51;18.30;99.90
67890;DHT22;54685;52.082;5.426;2022-09-09T15:06:20;18.50;99.90
67890;DHT22;54685;52.082;5.426;2022-09-09T15:08:50;18.40;99.90
67890;DHT22;54685;52.082;5.426;2022-09-09T15:11:18;18.30;99.90
67890;DHT22;54685;52.082;5.426;2022-09-09T15:13:45;18.20;99.90
67890;DHT22;54685;52.082;5.426;2022-09-09T15:16:16;18.20;99.90
67890;DHT22;54685;52.082;5.426;2022-09-09T15:18:44;18.20;99.90
67890;DHT22;54685;52.082;5.426;2022-09-09T15:21:12;18.20;99.90
67890;DHT22;54685;52.082;5.426;2022-09-09T15:23:39;18.20;99.90
67890;DHT22;54685;52.082;5.426;2022-09-09T15:26:06;18.30;99.90
67890;DHT22;54685;52.082;5.426;2022-09-09T15:28:35;18.20;99.90
67890;DHT22;54685;52.082;5.426;2022-09-09T15:31:16;18.40;99.90
67890;DHT22;54685;52.082;5.426;2022-09-09T15:33:54;18.40;99.90
67890;DHT22;54685;52.082;5.426;2022-09-09T15:39:02;18.40;99.90
67890;DHT22;54685;52.082;5.426;2022-09-09T15:41:30;18.40;99.90
67890;DHT22;54685;52.082;5.426;2022-09-09T15:43:59;18.40;99.90
67890;DHT22;54685;52.082;5.426;2022-09-09T15:46:35;18.30;99.90
67890;DHT22;54685;52.082;5.426;2022-09-09T15:49:16;18.30;99.90
67890;DHT22;54685;52.082;5.426;2022-09-09T15:51:53;18.20;99.90
67890;DHT22;54685;52.082;5.426;2022-09-09T15:54:21;18.10;99.90
67890;DHT22;54685;52.082;5.426;2022-09-09T15:56:54;18.20;99.90
67890;DHT22;54685;52.082;5.426;2022-09-09T15:59:27;18.10;99.90
67890;DHT22;54685;52.082;5.426;2022-09-09T16:01:54;18.20;99.90
67890;DHT22;54685;52.082;5.426;2022-09-09T16:04:22;18.30;99.90
67890;DHT22;54685;52.082;5.426;2022-09-09T16:06:54;18.20;99.90
67890;DHT22;54685;52.082;5.426;2022-09-09T16:09:22;18.20;99.90
67890;DHT22;54685;52.082;5.426;2022-09-09T16:11:49;18.30;99.90
67890;DHT22;54685;52.082;5.426;2022-09-09T16:14:15;18.20;99.90
67890;DHT22;54685;52.082;5.426;2022-09-09T16:16:42;18.30;99.90
67890;DHT22;54685;52.082;5.426;2022-09-09T16:19:11;18.40;99.90
67890;DHT22;54685;52.082;5.426;2022-09-09T16:21:44;18.50;99.90
67890;DHT22;54685;52.082;5.426;2022-09-09T16:24:17;18.40;99.90
67890;DHT22;54685;52.082;5.426;2022-09-09T16:26:47;18.30;99.90
67890;DHT22;54685;52.082;5.426;2022-09-09T16:29:15;18.30;99.90
67890;DHT22;54685;52.082;5.426;2022-09-09T16:31:44;18.20;99.90
67890;DHT22;54685;52.082;5.426;2022-09-09T16:34:11;18.20;99.90
67890;DHT22;54685;52.082;5.426;2022-09-09T16:36:40;18.20;99.90
67890;DHT22;54685;52.082;5.426;2022-09-09T16:39:09;18.20;99.90
67890;DHT22;54685;52.082;5.426;2022-09-09T16:41:39;18.20;99.90
67890;DHT22;54685;52.082;5.426;2022-09-09T16:44:08;18.20;99.90
67890;DHT22;54685;52.082;5.426;2022-09-09T16:46:37;18.20;99.90
67890;DHT22;54685;52.082;5.426;2022-09-09T16:49:10;18.20;99.90
67890;DHT22;54685;52.082;5.426;2022-09-09T16:51:38;18.20;99.90
67890;DHT22;54685;52.082;5.426;2022-09-09T16:54:08;18.20;99.90
67890;DHT22;54685;52.082;5.426;2022-09-09T16:56:37;18.20;99.90
67890;DHT22;54685;52.082;5.426;2022-09-09T16:59:16;18.20;99.90
67890;DHT22;54685;52.082;5.426;2022-09-09T17:01:45;18.20;99.90
67890;DHT22;54685;52.082;5.426;2022-09-09T17:04:21;18.20;99.90
67890;DHT22;54685;52.082;5.426;2022-09-09T17:06:52;18.20;99.90
67890;DHT22;54685;52.082;5.426;2022-09-09T17:09:20;18.10;99.90
67890;DHT22;54685;52.082;5.426;2022-09-09T17:11:48;18.10;99.90
67890;DHT22;54685;52.082;5.426;2022-09-09T17:14:18;18.10;99.90
67890;DHT22;54685;52.082;5.426;2022-09-09T17:16:45;18.10;99.90
67890;DHT22;54685;52.082;5.426;2022-09-09T17:19:13;18.00;99.90
67890;DHT22;54685;52.082;5.426;2022-09-09T17:21:40;18.10;99.90
67890;DHT22;54685;52.082;5.426;2022-09-09T17:24:27;18.10;99.90
67890;DHT22;54685;52.082;5.426;2022-09-09T17:26:55;18.10;99.90
67890;DHT22;54685;52.082;5.426;2022-09-09T17:29:22;18.10;99.90
67890;DHT22;54685;52.082;5.426;2022-09-09T17:31:49;18.00;99.90
67890;DHT22;54685;52.082;5.426;2022-09-09T17:34:15;18.00;99.90
67890;DHT22;54685;52.082;5.426;2022-09-09T17:36:42;18.00;99.90
67890;DHT22;54685;52.082;5.426;2022-09-09T17:39:09;18.00;99.90
67890;DHT22;54685;52.082;5.426;2022-09-09T17:41:53;18.00;99.90
67890;DHT22;54685;52.082;5.426;2022-09-09T17:44:21;17.90;99.90
67890;DHT22;54685;52.082;5.426;2022-09-09T17:46:48;17.90;99.90
67890;DHT22;54685;52.082;5.426;2022-09-09T17:49:16;18.00;99.90
67890;DHT22;54685;52.082;5.426;2022-09-09T17:51:46;18.00;99.90
67890;DHT22;54685;52.082;5.426;2022-09-09T17:54:17;17.90;99.90
67890;DHT22;54685;52.082;5.426;2022-09-09T17:56:46;17.90;99.90
67890;DHT22;54685;52.082;5.426;2022-09-09T17:59:15;17.90;99.90
67890;DHT22;54685;52.082;5.426;2022-09-09T18:01:47;17.90;99.90
67890;DHT22;54685;52.082;5.426;2022-09-09T18:04:17;17.80;99.90
67890;DHT22;54685;52.082;5.426;2022-09-09T18:06:51;17.80;99.90
67890;DHT22;54685;52.082;5.426;2022-09-09T18:09:22;17.80;99.90
67890;DHT22;54685;52.082;5.426;2022-09-09T18:11:52;17.70;99.90
67890;DHT22;54685;52.082;5.426;2022-09-09T18:14:26;17.60;99.90